createdAt,value
2018-11-02T00:01:03.243Z,6.20
2018-11-02T00:03:32.615Z,6.20
2018-11-02T00:06:02.023Z,6.20
2018-11-02T00:08:31.384Z,6.10
2018-11-02T00:11:00.783Z,6.00
2018-11-02T00:13:30.172Z,6.00
2018-11-02T00:15:59.595Z,6.00
2018-11-02T00:18:28.979Z,5.90
2018-11-02T00:20:58.427Z,5.70
2018-11-02T00:23:27.799Z,5.70
2018-11-02T00:25:57.236Z,5.70
2018-11-02T00:28:26.615Z,5.70
2018-11-02T00:30:55.987Z,5.70
2018-11-02T00:33:25.387Z,5.70
2018-11-02T00:35:54.824Z,5.80
2018-11-02T00:38:24.178Z,5.90
2018-11-02T00:40:53.570Z,5.80
2018-11-02T00:43:22.951Z,5.80
2018-11-02T00:45:52.285Z,5.70
2018-11-02T00:48:21.652Z,5.60
2018-11-02T00:50:50.994Z,5.50
2018-11-02T00:53:20.601Z,5.50
2018-11-02T00:55:49.942Z,5.40
2018-11-02T00:58:19.463Z,5.40
2018-11-02T01:00:48.808Z,5.20
2018-11-02T01:03:18.277Z,5.00
2018-11-02T01:05:47.614Z,5.10
2018-11-02T01:08:16.972Z,5.20
2018-11-02T01:10:46.425Z,5.30
2018-11-02T01:13:15.790Z,5.40
2018-11-02T01:15:45.128Z,5.60
2018-11-02T01:18:14.692Z,5.70
2018-11-02T01:20:43.999Z,5.90
2018-11-02T01:23:13.371Z,6.00
2018-11-02T01:25:42.702Z,6.10
2018-11-02T01:28:12.297Z,5.90
2018-11-02T01:30:41.705Z,5.70
2018-11-02T01:33:11.072Z,5.60
2018-11-02T01:35:40.418Z,5.40
2018-11-02T01:38:09.751Z,5.20
2018-11-02T01:40:39.105Z,4.90
2018-11-02T01:43:08.544Z,4.90
2018-11-02T01:45:37.913Z,5.00
2018-11-02T01:48:07.309Z,5.00
2018-11-02T01:50:36.655Z,5.10
2018-11-02T01:53:06.035Z,5.20
2018-11-02T01:55:35.391Z,5.20
2018-11-02T01:58:05.003Z,5.00
2018-11-02T02:00:34.353Z,5.00
2018-11-02T02:03:03.765Z,5.10
2018-11-02T02:05:33.143Z,5.20
2018-11-02T02:08:02.539Z,5.20
2018-11-02T02:10:31.894Z,5.20
2018-11-02T02:13:01.349Z,5.20
2018-11-02T02:15:30.678Z,5.20
2018-11-02T02:18:00.052Z,5.10
2018-11-02T02:20:29.494Z,5.00
2018-11-02T02:22:58.859Z,4.90
2018-11-02T02:25:28.268Z,4.90
2018-11-02T02:27:57.637Z,4.80
2018-11-02T02:30:27.031Z,4.90
2018-11-02T02:32:56.400Z,4.80
2018-11-02T02:35:25.786Z,4.70
2018-11-02T02:37:55.168Z,4.90
2018-11-02T02:40:24.589Z,5.00
2018-11-02T02:42:54.007Z,5.10
2018-11-02T02:45:23.421Z,5.20
2018-11-02T02:47:52.776Z,5.20
2018-11-02T02:50:22.171Z,5.10
2018-11-02T02:52:51.551Z,5.20
2018-11-02T02:55:20.930Z,5.20
2018-11-02T02:57:50.311Z,5.10
2018-11-02T03:00:19.684Z,5.20
2018-11-02T03:02:49.052Z,5.20
2018-11-02T03:05:18.458Z,5.20
2018-11-02T03:07:47.814Z,5.30
2018-11-02T03:10:17.231Z,5.20
2018-11-02T03:12:46.542Z,5.20
2018-11-02T03:15:15.944Z,5.10
2018-11-02T03:17:45.294Z,5.10
2018-11-02T03:20:14.712Z,5.00
2018-11-02T03:22:44.194Z,4.90
2018-11-02T03:25:13.462Z,4.90
2018-11-02T03:27:42.808Z,4.90
2018-11-02T03:30:12.753Z,4.90
2018-11-02T03:32:42.218Z,4.80
2018-11-02T03:35:11.615Z,4.80
2018-11-02T03:37:41.001Z,4.80
2018-11-02T03:40:11.111Z,5.00
2018-11-02T03:42:40.835Z,5.10
2018-11-02T03:45:10.211Z,5.20
2018-11-02T03:47:39.688Z,5.20
2018-11-02T03:50:10.082Z,5.10
2018-11-02T03:52:39.523Z,5.10
2018-11-02T03:55:08.951Z,5.20
2018-11-02T03:57:38.360Z,5.10
2018-11-02T04:00:08.547Z,5.00
2018-11-02T04:02:38.245Z,4.80
2018-11-02T04:05:08.212Z,4.70
2018-11-02T04:07:37.624Z,4.70
2018-11-02T04:10:08.664Z,4.80
2018-11-02T04:12:38.055Z,4.80
2018-11-02T04:15:07.488Z,4.80
2018-11-02T04:17:37.099Z,4.80
2018-11-02T04:20:07.594Z,4.80
2018-11-02T04:22:37.017Z,4.70
2018-11-02T04:25:06.811Z,4.70
2018-11-02T04:27:36.175Z,4.60
2018-11-02T04:30:06.172Z,4.50
2018-11-02T04:32:35.536Z,4.50
2018-11-02T04:35:04.885Z,4.40
2018-11-02T04:37:34.475Z,4.30
2018-11-02T04:40:04.124Z,4.30
2018-11-02T04:42:33.505Z,4.30
2018-11-02T04:45:02.860Z,4.30
2018-11-02T04:47:32.272Z,4.40
2018-11-02T04:50:01.607Z,4.40
2018-11-02T04:52:30.979Z,4.40
2018-11-02T04:55:00.356Z,4.30
2018-11-02T04:57:29.744Z,4.20
2018-11-02T04:59:59.124Z,4.10
2018-11-02T05:02:28.486Z,4.10
2018-11-02T05:04:57.839Z,4.20
2018-11-02T05:07:27.195Z,4.30
2018-11-02T05:09:56.566Z,4.30
2018-11-02T05:12:25.921Z,4.20
2018-11-02T05:14:56.281Z,4.30
2018-11-02T05:17:25.663Z,4.40
2018-11-02T05:19:55.036Z,4.40
2018-11-02T05:22:24.420Z,4.20
2018-11-02T05:24:53.842Z,4.00
2018-11-02T05:27:23.196Z,3.80
2018-11-02T05:29:52.600Z,3.70
2018-11-02T05:32:21.960Z,3.80
2018-11-02T05:34:51.339Z,3.90
2018-11-02T05:37:20.678Z,3.80
2018-11-02T05:39:50.040Z,3.80
2018-11-02T05:42:19.495Z,3.90
2018-11-02T05:44:49.312Z,3.90
2018-11-02T05:47:18.765Z,3.90
2018-11-02T05:49:48.315Z,3.90
2018-11-02T05:52:17.632Z,4.10
2018-11-02T05:54:47.021Z,4.10
2018-11-02T05:57:16.384Z,4.20
2018-11-02T05:59:45.759Z,4.20
2018-11-02T06:02:15.123Z,4.20
2018-11-02T06:04:44.495Z,4.40
2018-11-02T06:07:13.875Z,4.30
2018-11-02T06:09:43.265Z,4.30
2018-11-02T06:12:12.651Z,4.20
2018-11-02T06:14:42.001Z,4.20
2018-11-02T06:17:11.360Z,4.20
2018-11-02T06:19:40.748Z,4.30
2018-11-02T06:22:10.129Z,4.40
2018-11-02T06:24:39.484Z,4.40
2018-11-02T06:27:08.921Z,4.30
2018-11-02T06:29:38.370Z,4.20
2018-11-02T06:32:08.397Z,4.20
2018-11-02T06:34:37.851Z,4.10
2018-11-02T06:37:07.241Z,4.10
2018-11-02T06:39:36.685Z,4.20
2018-11-02T06:42:06.090Z,4.30
2018-11-02T06:44:35.509Z,4.20
2018-11-02T06:47:04.859Z,4.30
2018-11-02T06:49:34.227Z,4.40
2018-11-02T06:52:03.647Z,4.50
2018-11-02T06:54:33.049Z,4.60
2018-11-02T06:57:02.519Z,4.60
2018-11-02T06:59:32.098Z,4.50
2018-11-02T07:02:01.467Z,4.50
2018-11-02T07:04:33.832Z,4.70
2018-11-02T07:07:03.424Z,4.80
2018-11-02T07:09:32.795Z,4.80
2018-11-02T07:12:02.169Z,4.70
2018-11-02T07:14:31.510Z,4.80
2018-11-02T07:17:00.934Z,5.00
2018-11-02T07:19:30.283Z,5.00
2018-11-02T07:21:59.678Z,5.40
2018-11-02T07:24:29.039Z,5.90
2018-11-02T07:26:58.430Z,6.70
2018-11-02T07:29:27.795Z,7.30
2018-11-02T07:31:57.172Z,7.30
2018-11-02T07:34:26.602Z,7.10
2018-11-02T07:36:56.074Z,7.10
2018-11-02T07:39:25.409Z,6.90
2018-11-02T07:41:54.799Z,6.40
2018-11-02T07:44:24.181Z,6.40
2018-11-02T07:46:53.592Z,6.30
2018-11-02T07:49:22.986Z,6.30
2018-11-02T07:51:52.348Z,6.40
2018-11-02T07:54:22.031Z,6.40
2018-11-02T07:56:51.401Z,6.40
2018-11-02T07:59:20.878Z,6.40
2018-11-02T08:01:50.245Z,6.30
2018-11-02T08:04:20.003Z,6.40
2018-11-02T08:06:49.369Z,6.70
2018-11-02T08:09:18.766Z,7.00
2018-11-02T08:11:48.136Z,7.00
2018-11-02T08:14:17.516Z,7.10
2018-11-02T08:16:46.882Z,7.30
2018-11-02T08:19:16.923Z,7.20
2018-11-02T08:21:46.296Z,7.30
2018-11-02T08:24:15.714Z,7.20
2018-11-02T08:26:45.120Z,7.10
2018-11-02T08:29:14.488Z,7.10
2018-11-02T08:31:43.809Z,7.20
2018-11-02T08:34:13.213Z,7.50
2018-11-02T08:36:42.571Z,7.60
2018-11-02T08:39:12.721Z,7.80
2018-11-02T08:41:42.184Z,8.00
2018-11-02T08:44:11.606Z,8.20
2018-11-02T08:46:41.000Z,8.60
2018-11-02T08:49:10.380Z,9.70
2018-11-02T08:51:39.734Z,10.40
2018-11-02T08:54:09.090Z,10.40
2018-11-02T08:56:38.435Z,10.80
2018-11-02T08:59:07.873Z,10.70
2018-11-02T09:01:37.208Z,10.40
2018-11-02T09:04:06.719Z,10.30
2018-11-02T09:06:36.136Z,10.10
2018-11-02T09:09:07.312Z,10.00
2018-11-02T09:11:36.695Z,9.80
2018-11-02T09:14:06.145Z,9.90
2018-11-02T09:16:35.515Z,10.30
2018-11-02T09:19:05.091Z,11.10
2018-11-02T09:21:34.461Z,13.00
2018-11-02T09:24:03.870Z,14.90
2018-11-02T09:26:33.299Z,15.30
2018-11-02T09:29:02.680Z,14.40
2018-11-02T09:31:32.079Z,13.80
2018-11-02T09:34:01.455Z,15.10
2018-11-02T09:36:30.979Z,17.90
2018-11-02T09:39:00.380Z,19.00
2018-11-02T09:41:29.868Z,19.20
2018-11-02T09:43:59.318Z,20.00
2018-11-02T09:46:28.801Z,21.00
2018-11-02T09:48:58.187Z,21.90
2018-11-02T09:51:28.710Z,23.00
2018-11-02T09:53:58.163Z,23.10
2018-11-02T09:56:27.694Z,23.70
2018-11-02T09:58:57.090Z,24.30
2018-11-02T10:01:26.560Z,24.50
2018-11-02T10:03:56.091Z,24.40
2018-11-02T10:06:25.524Z,24.00
2018-11-02T10:08:54.926Z,23.90
2018-11-02T10:11:24.392Z,25.20
2018-11-02T10:13:53.873Z,25.10
2018-11-02T10:16:23.350Z,21.60
2018-11-02T10:18:52.779Z,21.30
2018-11-02T10:21:22.231Z,19.60
2018-11-02T10:23:51.708Z,18.60
2018-11-02T10:26:21.172Z,17.60
2018-11-02T10:28:50.689Z,17.20
2018-11-02T10:31:20.124Z,16.80
2018-11-02T10:33:49.502Z,16.30
2018-11-02T10:36:18.991Z,16.40
2018-11-02T10:38:48.383Z,16.40
2018-11-02T10:41:19.987Z,16.30
2018-11-02T10:43:49.537Z,16.90
2018-11-02T10:46:18.983Z,18.10
2018-11-02T10:48:48.446Z,18.80
2018-11-02T10:51:17.940Z,19.90
2018-11-02T10:53:47.365Z,21.60
2018-11-02T10:56:16.913Z,23.20
2018-11-02T10:58:46.395Z,24.20
2018-11-02T11:01:21.466Z,24.30
2018-11-02T11:03:50.841Z,24.70
2018-11-02T11:06:20.316Z,24.60
2018-11-02T11:08:49.747Z,25.10
2018-11-02T11:11:19.263Z,25.40
2018-11-02T11:13:48.836Z,25.50
2018-11-02T11:16:18.161Z,25.50
2018-11-02T11:18:47.612Z,26.30
2018-11-02T11:21:17.214Z,25.70
2018-11-02T11:23:46.604Z,24.50
2018-11-02T11:26:16.040Z,24.60
2018-11-02T11:28:45.508Z,25.20
2018-11-02T11:31:30.091Z,25.30
2018-11-02T11:33:59.633Z,25.70
2018-11-02T11:36:29.080Z,25.20
2018-11-02T11:38:58.617Z,25.30
2018-11-02T11:41:28.056Z,24.80
2018-11-02T11:43:57.601Z,24.30
2018-11-02T11:46:27.036Z,23.40
2018-11-02T11:48:56.663Z,24.30
2018-11-02T11:51:25.858Z,24.40
2018-11-02T11:53:55.258Z,24.30
2018-11-02T11:56:24.623Z,24.60
2018-11-02T11:58:54.063Z,24.90
2018-11-02T12:01:23.515Z,24.80
2018-11-02T12:03:52.972Z,25.30
2018-11-02T12:06:22.477Z,25.20
2018-11-02T12:08:52.041Z,25.10
2018-11-02T12:11:21.538Z,24.40
2018-11-02T12:13:50.992Z,24.40
2018-11-02T12:16:20.403Z,23.40
2018-11-02T12:18:49.827Z,23.40
2018-11-02T12:21:19.388Z,22.80
2018-11-02T12:23:48.844Z,21.00
2018-11-02T12:26:18.239Z,19.60
2018-11-02T12:28:47.696Z,18.30
2018-11-02T12:31:17.111Z,17.60
2018-11-02T12:33:46.494Z,17.50
2018-11-02T12:36:15.938Z,17.30
2018-11-02T12:38:45.333Z,17.10
2018-11-02T12:41:14.768Z,16.90
2018-11-02T12:43:44.211Z,16.40
2018-11-02T12:46:13.586Z,16.40
2018-11-02T12:48:43.022Z,16.30
2018-11-02T12:51:12.402Z,16.10
2018-11-02T12:53:41.768Z,16.00
2018-11-02T12:56:11.193Z,15.70
2018-11-02T12:58:40.578Z,15.60
2018-11-02T13:01:10.161Z,15.40
2018-11-02T13:03:39.635Z,15.30
2018-11-02T13:06:09.050Z,15.30
2018-11-02T13:08:38.415Z,15.20
2018-11-02T13:11:07.836Z,15.20
2018-11-02T13:13:37.248Z,15.10
2018-11-02T13:16:06.765Z,15.00
2018-11-02T13:18:36.124Z,14.90
2018-11-02T13:21:05.585Z,14.70
2018-11-02T13:23:34.956Z,14.60
2018-11-02T13:26:04.535Z,14.60
2018-11-02T13:28:33.936Z,14.60
2018-11-02T13:31:03.497Z,14.40
2018-11-02T13:33:32.817Z,14.10
2018-11-02T13:36:02.496Z,14.20
2018-11-02T13:38:31.944Z,14.00
2018-11-02T13:41:01.353Z,13.90
2018-11-02T13:43:30.827Z,13.70
2018-11-02T13:46:00.188Z,13.70
2018-11-02T13:48:29.615Z,13.50
2018-11-02T13:50:58.989Z,13.40
2018-11-02T13:53:28.401Z,13.30
2018-11-02T13:55:57.820Z,13.10
2018-11-02T13:58:27.247Z,13.10
2018-11-02T14:00:56.647Z,12.90
2018-11-02T14:03:26.123Z,13.00
2018-11-02T14:05:55.440Z,13.00
2018-11-02T14:08:24.859Z,12.90
2018-11-02T14:10:54.248Z,12.90
2018-11-02T14:13:23.641Z,12.80
2018-11-02T14:15:53.016Z,12.80
2018-11-02T14:18:22.423Z,12.70
2018-11-02T14:20:51.818Z,12.70
2018-11-02T14:23:21.215Z,12.70
2018-11-02T14:25:50.619Z,12.70
2018-11-02T14:28:19.988Z,12.60
2018-11-02T14:30:49.387Z,12.50
2018-11-02T14:33:18.862Z,12.60
2018-11-02T14:35:48.221Z,12.50
2018-11-02T14:38:17.864Z,12.60
2018-11-02T14:40:47.367Z,12.60
2018-11-02T14:43:16.769Z,12.60
2018-11-02T14:45:46.135Z,12.50
2018-11-02T14:48:15.539Z,12.50
2018-11-02T14:50:44.981Z,12.40
2018-11-02T14:53:14.383Z,12.30
2018-11-02T14:55:43.812Z,12.30
2018-11-02T14:58:13.169Z,12.30
2018-11-02T15:00:42.656Z,12.30
2018-11-02T15:03:12.040Z,12.10
2018-11-02T15:05:41.456Z,12.10
2018-11-02T15:08:11.039Z,12.20
2018-11-02T15:10:40.452Z,12.20
2018-11-02T15:13:09.818Z,12.20
2018-11-02T15:15:39.258Z,12.10
2018-11-02T15:18:08.653Z,12.00
2018-11-02T15:20:38.060Z,12.00
2018-11-02T15:23:07.424Z,11.80
2018-11-02T15:25:36.825Z,11.80
2018-11-02T15:28:06.285Z,11.70
2018-11-02T15:30:35.730Z,11.60
2018-11-02T15:33:05.394Z,11.60
2018-11-02T15:35:34.810Z,11.50
2018-11-02T15:38:04.212Z,11.50
2018-11-02T15:40:33.624Z,11.40
2018-11-02T15:43:03.031Z,11.30
2018-11-02T15:45:32.459Z,11.20
2018-11-02T15:48:01.865Z,11.00
2018-11-02T15:50:31.288Z,11.00
2018-11-02T15:53:00.680Z,10.80
2018-11-02T15:55:30.059Z,10.70
2018-11-02T15:57:59.443Z,10.60
2018-11-02T16:00:28.923Z,10.60
2018-11-02T16:02:58.302Z,10.60
2018-11-02T16:05:27.717Z,10.40
2018-11-02T16:07:57.160Z,10.50
2018-11-02T16:10:26.551Z,10.50
2018-11-02T16:12:56.003Z,10.40
2018-11-02T16:15:25.403Z,10.40
2018-11-02T16:17:54.827Z,10.50
2018-11-02T16:20:24.242Z,10.50
2018-11-02T16:22:53.648Z,10.40
2018-11-02T16:25:23.116Z,10.30
2018-11-02T16:27:52.567Z,10.20
2018-11-02T16:30:21.971Z,10.10
2018-11-02T16:32:51.383Z,10.10
2018-11-02T16:35:20.792Z,10.10
2018-11-02T16:37:50.214Z,10.10
2018-11-02T16:40:19.638Z,10.00
2018-11-02T16:42:49.039Z,9.80
2018-11-02T16:45:18.419Z,9.90
2018-11-02T16:47:47.849Z,9.90
2018-11-02T16:50:17.301Z,10.00
2018-11-02T16:52:46.688Z,9.90
2018-11-02T16:55:16.057Z,9.80
2018-11-02T16:57:45.716Z,9.90
2018-11-02T17:00:17.836Z,9.90
2018-11-02T17:02:48.255Z,9.90
2018-11-02T17:05:18.064Z,9.80
2018-11-02T17:07:47.481Z,9.90
2018-11-02T17:10:17.020Z,10.00
2018-11-02T17:12:46.532Z,9.90
2018-11-02T17:15:15.937Z,9.80
2018-11-02T17:17:45.318Z,10.10
2018-11-02T17:20:16.960Z,10.10
2018-11-02T17:22:46.601Z,10.00
2018-11-02T17:25:16.064Z,10.00
2018-11-02T17:27:45.663Z,10.00
2018-11-02T17:30:16.391Z,9.90
2018-11-02T17:32:45.783Z,9.90
2018-11-02T17:35:15.224Z,10.00
2018-11-02T17:37:44.625Z,10.00
2018-11-02T17:40:15.115Z,9.90
2018-11-02T17:42:44.954Z,9.80
2018-11-02T17:45:14.410Z,9.80
2018-11-02T17:47:43.868Z,9.70
2018-11-02T17:50:14.344Z,9.70
2018-11-02T17:52:44.327Z,9.60
2018-11-02T17:55:13.763Z,9.50
2018-11-02T17:57:43.168Z,9.50
2018-11-02T18:00:13.600Z,9.50
2018-11-02T18:02:43.107Z,9.50
2018-11-02T18:05:12.700Z,9.60
2018-11-02T18:07:42.124Z,9.60
2018-11-02T18:10:13.057Z,9.40
2018-11-02T18:12:42.471Z,9.30
2018-11-02T18:15:12.824Z,9.40
2018-11-02T18:17:42.228Z,9.60
2018-11-02T18:20:13.812Z,9.50
2018-11-02T18:22:43.248Z,9.50
2018-11-02T18:25:13.140Z,9.50
2018-11-02T18:27:43.022Z,9.50
2018-11-02T18:30:12.880Z,9.50
2018-11-02T18:32:42.338Z,9.60
2018-11-02T18:35:11.762Z,9.50
2018-11-02T18:37:41.224Z,9.30
2018-11-02T18:40:12.178Z,9.20
2018-11-02T18:42:42.019Z,9.30
2018-11-02T18:45:13.643Z,9.30
2018-11-02T18:47:46.108Z,9.10
2018-11-02T18:50:16.856Z,9.00
2018-11-02T18:52:46.891Z,8.90
2018-11-02T18:55:16.772Z,9.00
2018-11-02T18:57:46.248Z,9.10
2018-11-02T19:00:15.712Z,8.90
2018-11-02T19:02:45.199Z,8.90
2018-11-02T19:05:15.796Z,9.00
2018-11-02T19:07:45.454Z,9.10
2018-11-02T19:10:14.847Z,9.20
2018-11-02T19:12:44.760Z,9.20
2018-11-02T19:15:15.501Z,9.10
2018-11-02T19:17:44.941Z,9.30
2018-11-02T19:20:14.631Z,9.30
2018-11-02T19:22:44.016Z,9.30
2018-11-02T19:25:14.490Z,9.20
2018-11-02T19:27:44.807Z,9.10
2018-11-02T19:30:15.046Z,9.00
2018-11-02T19:32:44.509Z,8.90
2018-11-02T19:35:14.712Z,8.90
2018-11-02T19:37:44.288Z,8.90
2018-11-02T19:40:14.919Z,8.90
2018-11-02T19:42:44.354Z,8.90
2018-11-02T19:45:14.118Z,9.00
2018-11-02T19:47:49.084Z,9.10
2018-11-02T19:50:19.047Z,9.00
2018-11-02T19:52:48.596Z,8.90
2018-11-02T19:55:18.043Z,8.90
2018-11-02T19:57:47.407Z,8.90
2018-11-02T20:00:17.413Z,8.90
2018-11-02T20:02:46.857Z,8.90
2018-11-02T20:05:17.768Z,8.90
2018-11-02T20:07:47.151Z,9.00
2018-11-02T20:10:17.339Z,9.00
2018-11-02T20:12:47.251Z,9.00
2018-11-02T20:15:17.258Z,9.00
2018-11-02T20:17:46.767Z,9.00
2018-11-02T20:20:17.541Z,9.00
2018-11-02T20:22:46.908Z,9.00
2018-11-02T20:25:17.443Z,8.90
2018-11-02T20:27:46.996Z,8.80
2018-11-02T20:30:18.814Z,8.70
2018-11-02T20:32:48.230Z,8.70
2018-11-02T20:35:17.640Z,8.80
2018-11-02T20:37:47.244Z,8.80
2018-11-02T20:40:18.793Z,8.80
2018-11-02T20:42:48.294Z,8.90
2018-11-02T20:45:17.943Z,8.90
2018-11-02T20:47:48.569Z,8.80
2018-11-02T20:50:18.150Z,8.90
2018-11-02T20:52:47.620Z,8.80
2018-11-02T20:55:17.323Z,8.60
2018-11-02T20:57:46.753Z,8.60
2018-11-02T21:00:18.428Z,8.50
2018-11-02T21:02:47.847Z,8.60
2018-11-02T21:05:18.217Z,8.70
2018-11-02T21:07:48.112Z,8.80
2018-11-02T21:10:18.587Z,8.70
2018-11-02T21:12:48.276Z,8.70
2018-11-02T21:15:19.921Z,8.70
2018-11-02T21:17:49.688Z,8.80
2018-11-02T21:20:22.260Z,8.90
2018-11-02T21:22:51.730Z,8.70
2018-11-02T21:25:21.141Z,8.80
2018-11-02T21:27:50.611Z,8.80
2018-11-02T21:30:22.138Z,8.80
2018-11-02T21:32:52.025Z,8.70
2018-11-02T21:35:22.048Z,8.70
2018-11-02T21:37:51.695Z,8.60
2018-11-02T21:40:22.281Z,8.60
2018-11-02T21:42:51.718Z,8.50
2018-11-02T21:45:22.349Z,8.60
2018-11-02T21:47:51.763Z,8.60
2018-11-02T21:50:21.144Z,8.60
2018-11-02T21:52:50.666Z,8.60
2018-11-02T21:55:20.180Z,8.60
2018-11-02T21:57:49.625Z,8.50
2018-11-02T22:00:21.196Z,8.70
2018-11-02T22:02:50.676Z,8.70
2018-11-02T22:05:20.043Z,8.50
2018-11-02T22:07:50.362Z,8.60
2018-11-02T22:10:20.014Z,8.70
2018-11-02T22:12:49.466Z,8.70
2018-11-02T22:15:18.827Z,8.50
2018-11-02T22:17:48.315Z,8.50
2018-11-02T22:20:17.803Z,8.40
2018-11-02T22:22:47.275Z,8.30
2018-11-02T22:25:16.691Z,8.40
2018-11-02T22:27:46.173Z,8.50
2018-11-02T22:30:16.659Z,8.60
2018-11-02T22:32:46.047Z,8.60
2018-11-02T22:35:16.099Z,8.60
2018-11-02T22:37:45.780Z,8.50
2018-11-02T22:40:15.416Z,8.60
2018-11-02T22:42:44.993Z,8.60
2018-11-02T22:45:15.209Z,8.50
2018-11-02T22:47:49.819Z,8.50
2018-11-02T22:50:19.201Z,8.60
2018-11-02T22:52:48.593Z,8.60
2018-11-02T22:55:18.035Z,8.70
2018-11-02T22:57:47.412Z,8.70
2018-11-02T23:00:17.988Z,8.60
2018-11-02T23:02:47.979Z,8.50
2018-11-02T23:05:17.410Z,8.50
2018-11-02T23:07:46.935Z,8.50
2018-11-02T23:10:16.349Z,8.40
2018-11-02T23:12:45.738Z,8.30
2018-11-02T23:15:15.139Z,8.30
2018-11-02T23:17:45.132Z,8.20
2018-11-02T23:20:15.149Z,8.10
2018-11-02T23:22:44.567Z,8.00
2018-11-02T23:25:14.029Z,8.00
2018-11-02T23:27:44.551Z,8.00
2018-11-02T23:30:14.012Z,7.90
2018-11-02T23:32:43.331Z,7.60
2018-11-02T23:35:12.711Z,7.50
2018-11-02T23:37:42.220Z,7.50
2018-11-02T23:40:12.708Z,7.50
2018-11-02T23:42:42.104Z,7.70
2018-11-02T23:45:12.058Z,7.70
2018-11-02T23:47:55.975Z,7.80
2018-11-02T23:50:25.379Z,7.90
2018-11-02T23:52:54.739Z,7.80
2018-11-02T23:55:24.149Z,7.80
2018-11-02T23:57:53.547Z,7.80
